sensor_id;sensor_type;location;lat;lon;timestamp;temperature;humidity
9723;DHT22;4900;49.306;8.500;2022-07-12T00:02:21;20.16;64.92
9723;DHT22;4900;49.306;8.500;2022-07-12T00:05:24;20.13;65.21
9723;DHT22;4900;49.306;8.500;2022-07-12T00:08:27;20.10;65.58
9723;DHT22;4900;49.306;8.500;2022-07-12T00:11:30;20.09;65.83
9723;DHT22;4900;49.306;8.500;2022-07-12T00:14:33;20.06;66.02
9723;DHT22;4900;49.306;8.500;2022-07-12T00:17:37;20.08;66.14
9723;DHT22;4900;49.306;8.500;2022-07-12T00:20:41;20.09;66.35
9723;DHT22;4900;49.306;8.500;2022-07-12T00:23:44;20.09;66.71
9723;DHT22;4900;49.306;8.500;2022-07-12T00:26:46;20.08;67.10
9723;DHT22;4900;49.306;8.500;2022-07-12T00:29:49;20.06;67.23
9723;DHT22;4900;49.306;8.500;2022-07-12T00:32:52;20.08;67.25
9723;DHT22;4900;49.306;8.500;2022-07-12T00:35:55;20.05;67.22
9723;DHT22;4900;49.306;8.500;2022-07-12T00:38:58;20.02;67.06
9723;DHT22;4900;49.306;8.500;2022-07-12T00:42:01;19.96;67.09
9723;DHT22;4900;49.306;8.500;2022-07-12T00:45:06;19.95;67.00
9723;DHT22;4900;49.306;8.500;2022-07-12T00:48:10;19.92;66.85
9723;DHT22;4900;49.306;8.500;2022-07-12T00:51:13;19.86;66.78
9723;DHT22;4900;49.306;8.500;2022-07-12T00:54:17;19.79;66.87
9723;DHT22;4900;49.306;8.500;2022-07-12T00:57:20;19.76;67.08
9723;DHT22;4900;49.306;8.500;2022-07-12T01:00:26;19.72;67.50
9723;DHT22;4900;49.306;8.500;2022-07-12T01:03:29;19.72;67.64
9723;DHT22;4900;49.306;8.500;2022-07-12T01:06:33;19.72;67.77
9723;DHT22;4900;49.306;8.500;2022-07-12T01:09:36;19.71;67.75
9723;DHT22;4900;49.306;8.500;2022-07-12T01:12:39;19.65;67.83
9723;DHT22;4900;49.306;8.500;2022-07-12T01:15:42;19.64;67.82
9723;DHT22;4900;49.306;8.500;2022-07-12T01:18:46;19.57;67.62
9723;DHT22;4900;49.306;8.500;2022-07-12T01:21:50;19.55;67.47
9723;DHT22;4900;49.306;8.500;2022-07-12T01:24:55;19.53;67.29
9723;DHT22;4900;49.306;8.500;2022-07-12T01:27:58;19.44;67.24
9723;DHT22;4900;49.306;8.500;2022-07-12T01:31:01;19.40;67.10
9723;DHT22;4900;49.306;8.500;2022-07-12T01:34:04;19.31;67.33
9723;DHT22;4900;49.306;8.500;2022-07-12T01:37:13;19.20;67.52
9723;DHT22;4900;49.306;8.500;2022-07-12T01:40:17;19.13;67.60
9723;DHT22;4900;49.306;8.500;2022-07-12T01:43:20;19.09;67.74
9723;DHT22;4900;49.306;8.500;2022-07-12T01:46:24;19.09;67.95
9723;DHT22;4900;49.306;8.500;2022-07-12T01:49:27;19.06;67.99
9723;DHT22;4900;49.306;8.500;2022-07-12T01:52:29;18.99;68.06
9723;DHT22;4900;49.306;8.500;2022-07-12T01:55:32;18.95;68.16
9723;DHT22;4900;49.306;8.500;2022-07-12T01:58:35;18.89;68.26
9723;DHT22;4900;49.306;8.500;2022-07-12T02:01:39;18.92;68.30
9723;DHT22;4900;49.306;8.500;2022-07-12T02:04:43;18.86;68.23
9723;DHT22;4900;49.306;8.500;2022-07-12T02:07:48;18.85;68.26
9723;DHT22;4900;49.306;8.500;2022-07-12T02:10:52;18.82;68.38
9723;DHT22;4900;49.306;8.500;2022-07-12T02:13:55;18.81;68.29
9723;DHT22;4900;49.306;8.500;2022-07-12T02:16:58;18.76;68.21
9723;DHT22;4900;49.306;8.500;2022-07-12T02:20:01;18.72;68.30
9723;DHT22;4900;49.306;8.500;2022-07-12T02:23:03;18.71;68.43
9723;DHT22;4900;49.306;8.500;2022-07-12T02:26:06;18.65;68.41
9723;DHT22;4900;49.306;8.500;2022-07-12T02:29:09;18.60;68.50
9723;DHT22;4900;49.306;8.500;2022-07-12T02:32:13;18.58;68.49
9723;DHT22;4900;49.306;8.500;2022-07-12T02:35:17;18.51;68.54
9723;DHT22;4900;49.306;8.500;2022-07-12T02:38:20;18.44;68.68
9723;DHT22;4900;49.306;8.500;2022-07-12T02:41:24;18.44;68.80
9723;DHT22;4900;49.306;8.500;2022-07-12T02:44:27;18.39;68.92
9723;DHT22;4900;49.306;8.500;2022-07-12T02:47:30;18.33;69.10
9723;DHT22;4900;49.306;8.500;2022-07-12T02:50:33;18.31;69.27
9723;DHT22;4900;49.306;8.500;2022-07-12T02:53:36;18.27;69.40
9723;DHT22;4900;49.306;8.500;2022-07-12T02:56:39;18.24;69.46
9723;DHT22;4900;49.306;8.500;2022-07-12T02:59:43;18.24;69.52
9723;DHT22;4900;49.306;8.500;2022-07-12T03:02:45;18.24;69.56
9723;DHT22;4900;49.306;8.500;2022-07-12T03:05:48;18.16;69.62
9723;DHT22;4900;49.306;8.500;2022-07-12T03:08:52;18.13;69.76
9723;DHT22;4900;49.306;8.500;2022-07-12T03:11:55;18.10;70.03
9723;DHT22;4900;49.306;8.500;2022-07-12T03:14:58;18.08;70.28
9723;DHT22;4900;49.306;8.500;2022-07-12T03:18:02;18.06;70.58
9723;DHT22;4900;49.306;8.500;2022-07-12T03:21:05;18.05;70.59
9723;DHT22;4900;49.306;8.500;2022-07-12T03:24:08;18.05;70.58
9723;DHT22;4900;49.306;8.500;2022-07-12T03:27:12;18.03;70.62
9723;DHT22;4900;49.306;8.500;2022-07-12T03:30:15;18.03;70.61
9723;DHT22;4900;49.306;8.500;2022-07-12T03:33:19;18.03;70.68
9723;DHT22;4900;49.306;8.500;2022-07-12T03:36:22;18.02;70.82
9723;DHT22;4900;49.306;8.500;2022-07-12T03:39:25;18.01;71.03
9723;DHT22;4900;49.306;8.500;2022-07-12T03:42:28;18.03;71.08
9723;DHT22;4900;49.306;8.500;2022-07-12T03:45:32;18.02;70.88
9723;DHT22;4900;49.306;8.500;2022-07-12T03:48:35;18.05;70.79
9723;DHT22;4900;49.306;8.500;2022-07-12T03:51:39;18.06;70.66
9723;DHT22;4900;49.306;8.500;2022-07-12T03:54:42;18.06;70.68
9723;DHT22;4900;49.306;8.500;2022-07-12T03:57:45;18.09;70.68
9723;DHT22;4900;49.306;8.500;2022-07-12T04:00:49;18.08;70.62
9723;DHT22;4900;49.306;8.500;2022-07-12T04:03:52;18.09;70.54
9723;DHT22;4900;49.306;8.500;2022-07-12T04:06:55;18.10;70.57
9723;DHT22;4900;49.306;8.500;2022-07-12T04:09:58;18.14;70.44
9723;DHT22;4900;49.306;8.500;2022-07-12T04:13:01;18.14;70.34
9723;DHT22;4900;49.306;8.500;2022-07-12T04:16:04;18.14;70.35
9723;DHT22;4900;49.306;8.500;2022-07-12T04:19:07;18.17;70.36
9723;DHT22;4900;49.306;8.500;2022-07-12T04:22:13;18.19;70.55
9723;DHT22;4900;49.306;8.500;2022-07-12T04:25:16;18.19;70.71
9723;DHT22;4900;49.306;8.500;2022-07-12T04:28:19;18.17;70.99
9723;DHT22;4900;49.306;8.500;2022-07-12T04:31:23;18.17;71.22
9723;DHT22;4900;49.306;8.500;2022-07-12T04:34:26;18.22;71.42
9723;DHT22;4900;49.306;8.500;2022-07-12T04:37:29;18.23;71.38
9723;DHT22;4900;49.306;8.500;2022-07-12T04:40:32;18.24;71.37
9723;DHT22;4900;49.306;8.500;2022-07-12T04:43:35;18.24;71.42
9723;DHT22;4900;49.306;8.500;2022-07-12T04:46:39;18.30;71.33
9723;DHT22;4900;49.306;8.500;2022-07-12T04:49:41;18.31;71.30
9723;DHT22;4900;49.306;8.500;2022-07-12T04:52:44;18.33;71.11
9723;DHT22;4900;49.306;8.500;2022-07-12T04:55:47;18.36;71.08
9723;DHT22;4900;49.306;8.500;2022-07-12T04:58:50;18.40;70.90
9723;DHT22;4900;49.306;8.500;2022-07-12T05:01:53;18.47;70.71
9723;DHT22;4900;49.306;8.500;2022-07-12T05:04:56;18.48;70.44
9723;DHT22;4900;49.306;8.500;2022-07-12T05:07:59;18.53;70.27
9723;DHT22;4900;49.306;8.500;2022-07-12T05:11:02;18.54;70.15
9723;DHT22;4900;49.306;8.500;2022-07-12T05:14:05;18.57;70.13
9723;DHT22;4900;49.306;8.500;2022-07-12T05:17:08;18.58;70.18
9723;DHT22;4900;49.306;8.500;2022-07-12T05:20:11;18.64;70.17
9723;DHT22;4900;49.306;8.500;2022-07-12T05:23:14;18.69;70.24
9723;DHT22;4900;49.306;8.500;2022-07-12T05:26:17;18.75;70.02
9723;DHT22;4900;49.306;8.500;2022-07-12T05:29:20;18.82;69.80
9723;DHT22;4900;49.306;8.500;2022-07-12T05:32:23;18.88;69.77
9723;DHT22;4900;49.306;8.500;2022-07-12T05:35:26;18.92;69.86
9723;DHT22;4900;49.306;8.500;2022-07-12T05:38:29;18.98;69.85
9723;DHT22;4900;49.306;8.500;2022-07-12T05:41:32;19.09;69.70
9723;DHT22;4900;49.306;8.500;2022-07-12T05:44:35;19.20;69.47
9723;DHT22;4900;49.306;8.500;2022-07-12T05:47:38;19.29;69.16
9723;DHT22;4900;49.306;8.500;2022-07-12T05:50:41;19.40;68.87
9723;DHT22;4900;49.306;8.500;2022-07-12T05:53:44;19.48;68.94
9723;DHT22;4900;49.306;8.500;2022-07-12T05:56:47;19.59;69.04
9723;DHT22;4900;49.306;8.500;2022-07-12T05:59:51;19.68;68.86
9723;DHT22;4900;49.306;8.500;2022-07-12T06:02:54;20.14;68.11
9723;DHT22;4900;49.306;8.500;2022-07-12T06:05:58;21.02;65.44
9723;DHT22;4900;49.306;8.500;2022-07-12T06:09:02;21.76;62.92
9723;DHT22;4900;49.306;8.500;2022-07-12T06:12:06;22.41;61.21
9723;DHT22;4900;49.306;8.500;2022-07-12T06:15:09;23.09;59.15
9723;DHT22;4900;49.306;8.500;2022-07-12T06:18:13;23.64;57.55
9723;DHT22;4900;49.306;8.500;2022-07-12T06:21:16;24.18;55.90
9723;DHT22;4900;49.306;8.500;2022-07-12T06:24:19;24.71;54.79
9723;DHT22;4900;49.306;8.500;2022-07-12T06:27:22;25.44;53.27
9723;DHT22;4900;49.306;8.500;2022-07-12T06:30:25;25.92;51.74
9723;DHT22;4900;49.306;8.500;2022-07-12T06:33:28;26.24;50.65
9723;DHT22;4900;49.306;8.500;2022-07-12T06:36:31;26.61;49.75
9723;DHT22;4900;49.306;8.500;2022-07-12T06:39:36;26.88;48.66
9723;DHT22;4900;49.306;8.500;2022-07-12T06:42:38;27.26;47.94
9723;DHT22;4900;49.306;8.500;2022-07-12T06:45:41;27.58;47.13
9723;DHT22;4900;49.306;8.500;2022-07-12T06:48:45;28.10;46.11
9723;DHT22;4900;49.306;8.500;2022-07-12T06:51:48;28.29;45.41
9723;DHT22;4900;49.306;8.500;2022-07-12T06:54:51;28.64;44.68
9723;DHT22;4900;49.306;8.500;2022-07-12T06:57:54;29.29;43.85
9723;DHT22;4900;49.306;8.500;2022-07-12T07:00:56;29.89;42.50
9723;DHT22;4900;49.306;8.500;2022-07-12T07:03:59;30.05;42.06
9723;DHT22;4900;49.306;8.500;2022-07-12T07:07:02;30.27;41.27
9723;DHT22;4900;49.306;8.500;2022-07-12T07:10:06;30.67;40.74
9723;DHT22;4900;49.306;8.500;2022-07-12T07:13:09;31.16;39.66
9723;DHT22;4900;49.306;8.500;2022-07-12T07:16:13;31.58;38.89
9723;DHT22;4900;49.306;8.500;2022-07-12T07:19:16;31.68;38.98
9723;DHT22;4900;49.306;8.500;2022-07-12T07:22:19;31.20;39.00
9723;DHT22;4900;49.306;8.500;2022-07-12T07:25:22;30.81;39.22
9723;DHT22;4900;49.306;8.500;2022-07-12T07:28:26;30.55;39.28
9723;DHT22;4900;49.306;8.500;2022-07-12T07:31:29;30.89;39.11
9723;DHT22;4900;49.306;8.500;2022-07-12T07:34:31;30.71;39.20
9723;DHT22;4900;49.306;8.500;2022-07-12T07:37:37;30.92;39.14
9723;DHT22;4900;49.306;8.500;2022-07-12T07:40:41;32.12;37.16
9723;DHT22;4900;49.306;8.500;2022-07-12T07:43:44;32.85;36.35
9723;DHT22;4900;49.306;8.500;2022-07-12T07:46:47;33.46;35.13
9723;DHT22;4900;49.306;8.500;2022-07-12T07:49:50;33.80;34.16
9723;DHT22;4900;49.306;8.500;2022-07-12T07:52:57;34.36;34.44
9723;DHT22;4900;49.306;8.500;2022-07-12T07:56:00;34.61;34.12
9723;DHT22;4900;49.306;8.500;2022-07-12T07:59:06;35.04;32.84
9723;DHT22;4900;49.306;8.500;2022-07-12T08:02:13;35.15;32.87
9723;DHT22;4900;49.306;8.500;2022-07-12T08:05:17;35.29;32.60
9723;DHT22;4900;49.306;8.500;2022-07-12T08:08:19;34.98;33.05
9723;DHT22;4900;49.306;8.500;2022-07-12T08:11:23;34.36;33.61
9723;DHT22;4900;49.306;8.500;2022-07-12T08:14:25;33.15;35.11
9723;DHT22;4900;49.306;8.500;2022-07-12T08:17:28;33.30;34.91
9723;DHT22;4900;49.306;8.500;2022-07-12T08:20:31;33.88;34.08
9723;DHT22;4900;49.306;8.500;2022-07-12T08:23:35;34.27;33.50
9723;DHT22;4900;49.306;8.500;2022-07-12T08:26:37;34.46;32.87
9723;DHT22;4900;49.306;8.500;2022-07-12T08:29:42;35.11;32.73
9723;DHT22;4900;49.306;8.500;2022-07-12T08:32:46;35.63;31.62
9723;DHT22;4900;49.306;8.500;2022-07-12T08:35:49;36.04;31.19
9723;DHT22;4900;49.306;8.500;2022-07-12T08:38:52;36.42;30.76
9723;DHT22;4900;49.306;8.500;2022-07-12T08:41:55;35.60;30.64
9723;DHT22;4900;49.306;8.500;2022-07-12T08:44:58;34.97;31.25
9723;DHT22;4900;49.306;8.500;2022-07-12T08:48:01;35.54;31.57
9723;DHT22;4900;49.306;8.500;2022-07-12T08:51:13;34.54;32.16
9723;DHT22;4900;49.306;8.500;2022-07-12T08:54:16;33.39;34.17
9723;DHT22;4900;49.306;8.500;2022-07-12T08:57:30;33.74;33.46
9723;DHT22;4900;49.306;8.500;2022-07-12T09:00:35;33.33;33.57
9723;DHT22;4900;49.306;8.500;2022-07-12T09:03:39;32.85;34.19
9723;DHT22;4900;49.306;8.500;2022-07-12T09:06:42;33.20;34.22
9723;DHT22;4900;49.306;8.500;2022-07-12T09:09:47;33.90;33.10
9723;DHT22;4900;49.306;8.500;2022-07-12T09:12:51;34.35;33.13
9723;DHT22;4900;49.306;8.500;2022-07-12T09:16:11;34.10;33.48
9723;DHT22;4900;49.306;8.500;2022-07-12T09:19:16;32.98;34.42
9723;DHT22;4900;49.306;8.500;2022-07-12T09:22:20;32.60;34.73
9723;DHT22;4900;49.306;8.500;2022-07-12T09:25:23;32.06;35.37
9723;DHT22;4900;49.306;8.500;2022-07-12T09:28:27;31.40;37.32
9723;DHT22;4900;49.306;8.500;2022-07-12T09:31:48;32.02;34.92
9723;DHT22;4900;49.306;8.500;2022-07-12T09:35:10;31.89;35.32
9723;DHT22;4900;49.306;8.500;2022-07-12T09:38:37;31.62;36.40
9723;DHT22;4900;49.306;8.500;2022-07-12T09:41:40;31.52;36.64
9723;DHT22;4900;49.306;8.500;2022-07-12T09:44:43;32.33;34.84
9723;DHT22;4900;49.306;8.500;2022-07-12T09:47:47;32.65;34.27
9723;DHT22;4900;49.306;8.500;2022-07-12T09:50:51;32.99;34.32
9723;DHT22;4900;49.306;8.500;2022-07-12T09:53:54;33.27;34.25
9723;DHT22;4900;49.306;8.500;2022-07-12T09:57:03;34.42;32.31
9723;DHT22;4900;49.306;8.500;2022-07-12T10:00:07;33.92;31.69
9723;DHT22;4900;49.306;8.500;2022-07-12T10:03:14;33.98;31.42
9723;DHT22;4900;49.306;8.500;2022-07-12T10:06:25;35.28;30.63
9723;DHT22;4900;49.306;8.500;2022-07-12T10:09:29;36.32;29.97
9723;DHT22;4900;49.306;8.500;2022-07-12T10:12:33;36.63;30.63
9723;DHT22;4900;49.306;8.500;2022-07-12T10:15:38;36.87;31.01
9723;DHT22;4900;49.306;8.500;2022-07-12T10:18:41;37.01;29.89
9723;DHT22;4900;49.306;8.500;2022-07-12T10:21:48;36.65;29.67
9723;DHT22;4900;49.306;8.500;2022-07-12T10:24:51;36.87;28.86
9723;DHT22;4900;49.306;8.500;2022-07-12T10:27:55;36.20;28.77
9723;DHT22;4900;49.306;8.500;2022-07-12T10:31:04;36.35;29.12
9723;DHT22;4900;49.306;8.500;2022-07-12T10:37:16;36.09;28.47
9723;DHT22;4900;49.306;8.500;2022-07-12T10:40:20;37.01;28.18
9723;DHT22;4900;49.306;8.500;2022-07-12T10:43:25;37.04;28.27
9723;DHT22;4900;49.306;8.500;2022-07-12T10:46:59;37.45;28.63
9723;DHT22;4900;49.306;8.500;2022-07-12T10:50:04;37.97;28.02
9723;DHT22;4900;49.306;8.500;2022-07-12T10:56:24;38.23;27.14
9723;DHT22;4900;49.306;8.500;2022-07-12T10:59:29;37.74;27.10
9723;DHT22;4900;49.306;8.500;2022-07-12T11:02:32;37.54;26.15
9723;DHT22;4900;49.306;8.500;2022-07-12T11:05:36;38.16;27.03
9723;DHT22;4900;49.306;8.500;2022-07-12T11:09:00;37.87;26.25
9723;DHT22;4900;49.306;8.500;2022-07-12T11:12:03;38.45;26.61
9723;DHT22;4900;49.306;8.500;2022-07-12T11:15:07;38.87;26.23
9723;DHT22;4900;49.306;8.500;2022-07-12T11:18:27;39.10;26.12
9723;DHT22;4900;49.306;8.500;2022-07-12T11:21:31;39.06;25.90
9723;DHT22;4900;49.306;8.500;2022-07-12T11:24:34;38.86;26.03
9723;DHT22;4900;49.306;8.500;2022-07-12T11:27:40;38.70;26.05
9723;DHT22;4900;49.306;8.500;2022-07-12T11:30:51;39.24;25.57
9723;DHT22;4900;49.306;8.500;2022-07-12T11:33:54;38.96;25.94
9723;DHT22;4900;49.306;8.500;2022-07-12T11:36:59;38.45;26.19
9723;DHT22;4900;49.306;8.500;2022-07-12T11:40:04;38.73;25.92
9723;DHT22;4900;49.306;8.500;2022-07-12T11:43:07;39.66;25.57
9723;DHT22;4900;49.306;8.500;2022-07-12T11:46:12;39.99;25.03
9723;DHT22;4900;49.306;8.500;2022-07-12T11:49:15;39.65;25.69
9723;DHT22;4900;49.306;8.500;2022-07-12T11:52:20;39.64;25.81
9723;DHT22;4900;49.306;8.500;2022-07-12T11:55:24;38.73;25.98
9723;DHT22;4900;49.306;8.500;2022-07-12T11:58:28;39.68;25.63
9723;DHT22;4900;49.306;8.500;2022-07-12T12:01:32;39.90;25.04
9723;DHT22;4900;49.306;8.500;2022-07-12T12:04:52;39.70;25.55
9723;DHT22;4900;49.306;8.500;2022-07-12T12:07:57;39.24;26.38
9723;DHT22;4900;49.306;8.500;2022-07-12T12:11:00;39.44;25.74
9723;DHT22;4900;49.306;8.500;2022-07-12T12:14:04;39.54;24.89
9723;DHT22;4900;49.306;8.500;2022-07-12T12:17:13;39.90;24.68
9723;DHT22;4900;49.306;8.500;2022-07-12T12:20:21;39.90;26.34
9723;DHT22;4900;49.306;8.500;2022-07-12T12:23:24;39.38;25.97
9723;DHT22;4900;49.306;8.500;2022-07-12T12:26:30;39.89;25.74
9723;DHT22;4900;49.306;8.500;2022-07-12T12:29:40;39.84;24.62
9723;DHT22;4900;49.306;8.500;2022-07-12T12:32:54;40.26;24.17
9723;DHT22;4900;49.306;8.500;2022-07-12T12:36:24;40.04;26.20
9723;DHT22;4900;49.306;8.500;2022-07-12T12:39:30;40.52;25.43
9723;DHT22;4900;49.306;8.500;2022-07-12T12:42:36;40.57;24.44
9723;DHT22;4900;49.306;8.500;2022-07-12T12:45:53;40.20;25.09
9723;DHT22;4900;49.306;8.500;2022-07-12T12:48:57;40.47;24.95
9723;DHT22;4900;49.306;8.500;2022-07-12T12:51:59;40.43;24.38
9723;DHT22;4900;49.306;8.500;2022-07-12T12:55:03;40.00;24.91
9723;DHT22;4900;49.306;8.500;2022-07-12T12:58:07;40.10;24.63
9723;DHT22;4900;49.306;8.500;2022-07-12T13:01:11;40.64;23.85
9723;DHT22;4900;49.306;8.500;2022-07-12T13:04:14;40.20;25.84
9723;DHT22;4900;49.306;8.500;2022-07-12T13:07:17;40.29;23.94
9723;DHT22;4900;49.306;8.500;2022-07-12T13:10:20;40.29;23.67
9723;DHT22;4900;49.306;8.500;2022-07-12T13:13:23;40.03;24.16
9723;DHT22;4900;49.306;8.500;2022-07-12T13:16:26;40.79;23.36
9723;DHT22;4900;49.306;8.500;2022-07-12T13:19:29;40.93;22.81
9723;DHT22;4900;49.306;8.500;2022-07-12T13:22:34;40.78;22.89
9723;DHT22;4900;49.306;8.500;2022-07-12T13:25:38;40.93;23.35
9723;DHT22;4900;49.306;8.500;2022-07-12T13:28:40;41.03;23.17
9723;DHT22;4900;49.306;8.500;2022-07-12T13:31:43;40.99;22.76
9723;DHT22;4900;49.306;8.500;2022-07-12T13:34:47;41.25;22.60
9723;DHT22;4900;49.306;8.500;2022-07-12T13:37:50;41.26;22.54
9723;DHT22;4900;49.306;8.500;2022-07-12T13:40:53;41.61;22.43
9723;DHT22;4900;49.306;8.500;2022-07-12T13:43:56;41.80;21.96
9723;DHT22;4900;49.306;8.500;2022-07-12T13:46:59;41.74;21.81
9723;DHT22;4900;49.306;8.500;2022-07-12T13:50:04;41.43;21.96
9723;DHT22;4900;49.306;8.500;2022-07-12T13:53:07;42.05;21.60
9723;DHT22;4900;49.306;8.500;2022-07-12T13:56:10;42.00;21.26
9723;DHT22;4900;49.306;8.500;2022-07-12T13:59:13;41.98;21.83
9723;DHT22;4900;49.306;8.500;2022-07-12T14:02:16;41.88;21.19
9723;DHT22;4900;49.306;8.500;2022-07-12T14:05:19;41.82;21.26
9723;DHT22;4900;49.306;8.500;2022-07-12T14:08:23;41.95;21.86
9723;DHT22;4900;49.306;8.500;2022-07-12T14:11:25;42.26;21.68
9723;DHT22;4900;49.306;8.500;2022-07-12T14:14:29;42.29;21.33
9723;DHT22;4900;49.306;8.500;2022-07-12T14:17:51;42.65;21.75
9723;DHT22;4900;49.306;8.500;2022-07-12T14:20:54;42.81;21.78
9723;DHT22;4900;49.306;8.500;2022-07-12T14:23:57;42.32;22.12
9723;DHT22;4900;49.306;8.500;2022-07-12T14:27:07;42.54;21.62
9723;DHT22;4900;49.306;8.500;2022-07-12T14:30:12;42.16;21.89
9723;DHT22;4900;49.306;8.500;2022-07-12T14:33:16;42.68;21.29
9723;DHT22;4900;49.306;8.500;2022-07-12T14:36:19;42.71;20.90
9723;DHT22;4900;49.306;8.500;2022-07-12T14:39:22;42.17;21.03
9723;DHT22;4900;49.306;8.500;2022-07-12T14:42:25;42.09;21.44
9723;DHT22;4900;49.306;8.500;2022-07-12T14:45:28;41.86;21.59
9723;DHT22;4900;49.306;8.500;2022-07-12T14:48:31;42.15;21.48
9723;DHT22;4900;49.306;8.500;2022-07-12T14:51:35;42.16;21.14
9723;DHT22;4900;49.306;8.500;2022-07-12T14:54:38;42.05;21.20
9723;DHT22;4900;49.306;8.500;2022-07-12T14:57:41;42.34;21.77
9723;DHT22;4900;49.306;8.500;2022-07-12T15:00:45;41.99;21.52
9723;DHT22;4900;49.306;8.500;2022-07-12T15:03:48;41.89;21.64
9723;DHT22;4900;49.306;8.500;2022-07-12T15:06:50;42.06;21.09
9723;DHT22;4900;49.306;8.500;2022-07-12T15:09:53;42.30;21.25
9723;DHT22;4900;49.306;8.500;2022-07-12T15:12:57;42.47;20.88
9723;DHT22;4900;49.306;8.500;2022-07-12T15:16:00;41.81;20.53
9723;DHT22;4900;49.306;8.500;2022-07-12T15:19:04;42.11;20.83
9723;DHT22;4900;49.306;8.500;2022-07-12T15:22:07;42.13;20.78
9723;DHT22;4900;49.306;8.500;2022-07-12T15:25:12;42.47;20.69
9723;DHT22;4900;49.306;8.500;2022-07-12T15:28:15;42.71;20.80
9723;DHT22;4900;49.306;8.500;2022-07-12T15:31:18;43.10;20.37
9723;DHT22;4900;49.306;8.500;2022-07-12T15:34:21;43.60;20.22
9723;DHT22;4900;49.306;8.500;2022-07-12T15:37:24;43.70;19.92
9723;DHT22;4900;49.306;8.500;2022-07-12T15:40:27;43.89;19.43
9723;DHT22;4900;49.306;8.500;2022-07-12T15:43:30;43.99;19.60
9723;DHT22;4900;49.306;8.500;2022-07-12T15:46:33;44.15;19.90
9723;DHT22;4900;49.306;8.500;2022-07-12T15:49:36;44.62;19.31
9723;DHT22;4900;49.306;8.500;2022-07-12T15:52:39;44.60;19.78
9723;DHT22;4900;49.306;8.500;2022-07-12T15:56:05;44.53;19.58
9723;DHT22;4900;49.306;8.500;2022-07-12T15:59:10;44.25;19.51
9723;DHT22;4900;49.306;8.500;2022-07-12T16:02:13;43.80;19.60
9723;DHT22;4900;49.306;8.500;2022-07-12T16:05:16;43.73;19.80
9723;DHT22;4900;49.306;8.500;2022-07-12T16:08:19;43.27;20.24
9723;DHT22;4900;49.306;8.500;2022-07-12T16:11:23;42.60;20.32
9723;DHT22;4900;49.306;8.500;2022-07-12T16:14:26;42.02;20.86
9723;DHT22;4900;49.306;8.500;2022-07-12T16:17:31;41.84;21.39
9723;DHT22;4900;49.306;8.500;2022-07-12T16:20:34;41.96;21.35
9723;DHT22;4900;49.306;8.500;2022-07-12T16:23:38;42.27;20.82
9723;DHT22;4900;49.306;8.500;2022-07-12T16:26:41;42.47;21.02
9723;DHT22;4900;49.306;8.500;2022-07-12T16:29:44;42.58;20.76
9723;DHT22;4900;49.306;8.500;2022-07-12T16:32:48;42.48;20.14
9723;DHT22;4900;49.306;8.500;2022-07-12T16:35:51;42.48;20.66
9723;DHT22;4900;49.306;8.500;2022-07-12T16:38:54;42.62;20.42
9723;DHT22;4900;49.306;8.500;2022-07-12T16:41:59;42.72;20.51
9723;DHT22;4900;49.306;8.500;2022-07-12T16:45:03;42.78;20.73
9723;DHT22;4900;49.306;8.500;2022-07-12T16:48:06;42.65;20.75
9723;DHT22;4900;49.306;8.500;2022-07-12T16:51:09;42.23;20.66
9723;DHT22;4900;49.306;8.500;2022-07-12T16:54:24;41.86;21.12
9723;DHT22;4900;49.306;8.500;2022-07-12T16:57:29;41.75;21.37
9723;DHT22;4900;49.306;8.500;2022-07-12T17:00:33;41.54;21.31
9723;DHT22;4900;49.306;8.500;2022-07-12T17:03:35;41.37;21.53
9723;DHT22;4900;49.306;8.500;2022-07-12T17:06:38;41.07;21.64
9723;DHT22;4900;49.306;8.500;2022-07-12T17:09:42;40.88;21.85
9723;DHT22;4900;49.306;8.500;2022-07-12T17:12:46;40.44;22.19
9723;DHT22;4900;49.306;8.500;2022-07-12T17:15:49;40.04;22.60
9723;DHT22;4900;49.306;8.500;2022-07-12T17:18:53;39.89;22.67
9723;DHT22;4900;49.306;8.500;2022-07-12T17:21:56;39.44;22.87
9723;DHT22;4900;49.306;8.500;2022-07-12T17:24:59;38.87;23.09
9723;DHT22;4900;49.306;8.500;2022-07-12T17:28:02;38.56;23.66
9723;DHT22;4900;49.306;8.500;2022-07-12T17:31:05;38.27;23.88
9723;DHT22;4900;49.306;8.500;2022-07-12T17:34:10;38.00;24.25
9723;DHT22;4900;49.306;8.500;2022-07-12T17:37:15;37.72;24.52
9723;DHT22;4900;49.306;8.500;2022-07-12T17:40:19;37.58;24.61
9723;DHT22;4900;49.306;8.500;2022-07-12T17:43:22;37.43;24.69
9723;DHT22;4900;49.306;8.500;2022-07-12T17:46:26;37.43;24.86
9723;DHT22;4900;49.306;8.500;2022-07-12T17:49:29;37.18;25.05
9723;DHT22;4900;49.306;8.500;2022-07-12T17:52:32;36.97;25.36
9723;DHT22;4900;49.306;8.500;2022-07-12T17:55:35;36.73;25.92
9723;DHT22;4900;49.306;8.500;2022-07-12T17:58:37;36.40;26.11
9723;DHT22;4900;49.306;8.500;2022-07-12T18:01:41;36.06;26.72
9723;DHT22;4900;49.306;8.500;2022-07-12T18:04:44;35.74;27.21
9723;DHT22;4900;49.306;8.500;2022-07-12T18:07:47;35.43;27.76
9723;DHT22;4900;49.306;8.500;2022-07-12T18:10:50;35.08;28.34
9723;DHT22;4900;49.306;8.500;2022-07-12T18:13:53;34.76;29.07
9723;DHT22;4900;49.306;8.500;2022-07-12T18:17:15;34.63;29.73
9723;DHT22;4900;49.306;8.500;2022-07-12T18:20:37;34.70;30.01
9723;DHT22;4900;49.306;8.500;2022-07-12T18:23:40;34.86;29.65
9723;DHT22;4900;49.306;8.500;2022-07-12T18:26:45;35.08;30.13
9723;DHT22;4900;49.306;8.500;2022-07-12T18:29:48;35.22;29.77
9723;DHT22;4900;49.306;8.500;2022-07-12T18:32:51;35.29;29.97
9723;DHT22;4900;49.306;8.500;2022-07-12T18:35:54;35.33;29.93
9723;DHT22;4900;49.306;8.500;2022-07-12T18:38:57;35.29;30.13
9723;DHT22;4900;49.306;8.500;2022-07-12T18:42:00;35.15;30.27
9723;DHT22;4900;49.306;8.500;2022-07-12T18:45:03;34.90;30.59
9723;DHT22;4900;49.306;8.500;2022-07-12T18:48:06;34.57;30.99
9723;DHT22;4900;49.306;8.500;2022-07-12T18:51:10;34.18;31.51
9723;DHT22;4900;49.306;8.500;2022-07-12T18:54:13;33.80;32.52
9723;DHT22;4900;49.306;8.500;2022-07-12T18:57:16;33.23;34.64
9723;DHT22;4900;49.306;8.500;2022-07-12T19:00:20;32.79;35.40
9723;DHT22;4900;49.306;8.500;2022-07-12T19:03:23;32.39;36.14
9723;DHT22;4900;49.306;8.500;2022-07-12T19:06:27;31.95;37.04
9723;DHT22;4900;49.306;8.500;2022-07-12T19:09:30;31.58;36.67
9723;DHT22;4900;49.306;8.500;2022-07-12T19:12:33;31.23;37.23
9723;DHT22;4900;49.306;8.500;2022-07-12T19:15:40;30.86;37.84
9723;DHT22;4900;49.306;8.500;2022-07-12T19:18:43;30.55;37.95
9723;DHT22;4900;49.306;8.500;2022-07-12T19:21:45;30.26;38.65
9723;DHT22;4900;49.306;8.500;2022-07-12T19:24:50;29.98;39.06
9723;DHT22;4900;49.306;8.500;2022-07-12T19:27:53;29.71;39.51
9723;DHT22;4900;49.306;8.500;2022-07-12T19:30:57;29.43;39.94
9723;DHT22;4900;49.306;8.500;2022-07-12T19:34:00;29.19;40.17
9723;DHT22;4900;49.306;8.500;2022-07-12T19:37:03;28.93;40.59
9723;DHT22;4900;49.306;8.500;2022-07-12T19:40:07;28.71;41.69
9723;DHT22;4900;49.306;8.500;2022-07-12T19:43:10;28.48;41.96
9723;DHT22;4900;49.306;8.500;2022-07-12T19:46:13;28.27;42.57
9723;DHT22;4900;49.306;8.500;2022-07-12T19:49:16;28.06;43.14
9723;DHT22;4900;49.306;8.500;2022-07-12T19:52:19;27.89;43.32
9723;DHT22;4900;49.306;8.500;2022-07-12T19:55:22;27.68;43.50
9723;DHT22;4900;49.306;8.500;2022-07-12T19:58:25;27.51;43.87
9723;DHT22;4900;49.306;8.500;2022-07-12T20:01:28;27.37;44.16
9723;DHT22;4900;49.306;8.500;2022-07-12T20:04:33;27.21;44.47
9723;DHT22;4900;49.306;8.500;2022-07-12T20:07:36;27.09;44.79
9723;DHT22;4900;49.306;8.500;2022-07-12T20:10:41;26.98;45.08